Time;durP1;ratioP1;P1;durP2;ratioP2;P2;SDS_P1;SDS_P2;PMS_P1;PMS_P2;Temp;Humidity;BMP_temperature;BMP_pressure;BME280_temperature;BME280_humidity;BME280_pressure;Samples;Min_cycle;Max_cycle;Signal;HPM_P1;HPM_P2
2021/05/12 00:02:38;;;;;;;38.70;31.67;;;13.00;90.80;;;;;;5014445;28;20554;-80
2021/05/12 00:05:06;;;;;;;37.30;32.33;;;12.90;90.90;;;;;;5012675;28;20026;-79
2021/05/12 00:07:50;;;;;;;38.90;32.97;;;12.90;91.10;;;;;;5014191;28;20033;-79
2021/05/12 00:10:35;;;;;;;38.90;32.08;;;12.90;91.10;;;;;;5013573;28;20045;-80
2021/05/12 00:15:44;;;;;;;42.38;32.42;;;12.90;91.20;;;;;;5018564;28;20113;-78
2021/05/12 00:18:35;;;;;;;40.25;34.40;;;12.80;91.20;;;;;;5030313;28;20026;-78
2021/05/12 00:21:02;;;;;;;41.67;33.20;;;12.80;91.20;;;;;;5034937;28;20037;-80
2021/05/12 00:23:39;;;;;;;35.47;30.38;;;12.70;91.30;;;;;;5031685;28;20018;-79
2021/05/12 00:26:04;;;;;;;37.35;31.70;;;12.70;91.30;;;;;;5038800;28;20022;-79
2021/05/12 00:28:49;;;;;;;39.42;30.95;;;12.60;91.40;;;;;;5032879;28;20072;-78
2021/05/12 00:31:14;;;;;;;40.65;31.08;;;12.60;91.50;;;;;;5020055;28;20466;-79
2021/05/12 00:33:42;;;;;;;36.53;30.17;;;12.60;91.50;;;;;;5029464;28;20097;-78
2021/05/12 00:36:08;;;;;;;38.80;31.17;;;12.60;91.60;;;;;;5028807;28;20093;-78
2021/05/12 00:41:18;;;;;;;39.65;29.42;;;12.50;91.60;;;;;;5017416;28;20505;-78
2021/05/12 00:44:02;;;;;;;39.83;28.75;;;12.50;91.60;;;;;;5018072;28;20030;-79
2021/05/12 00:46:27;;;;;;;39.72;29.38;;;12.50;91.50;;;;;;5016235;28;20428;-78
2021/05/12 00:48:53;;;;;;;38.97;30.30;;;12.50;91.50;;;;;;5015959;28;20021;-79
2021/05/12 00:51:38;;;;;;;39.35;28.00;;;12.40;91.50;;;;;;5017516;28;20450;-81
2021/05/12 00:57:07;;;;;;;37.63;26.98;;;12.40;91.40;;;;;;5020798;28;20057;-79
2021/05/12 01:00:11;;;;;;;34.08;26.90;;;12.30;91.30;;;;;;5018506;28;20429;-79
2021/05/12 01:02:37;;;;;;;33.85;26.08;;;12.30;91.30;;;;;;5018600;28;20091;-79
2021/05/12 01:05:04;;;;;;;35.20;25.48;;;12.30;91.30;;;;;;5018019;28;20484;-78
2021/05/12 01:13:18;;;;;;;33.50;25.50;;;12.20;91.10;;;;;;5018949;28;20057;-78
2021/05/12 01:16:03;;;;;;;34.92;22.90;;;12.20;91.10;;;;;;5015179;28;20034;-77
2021/05/12 01:18:47;;;;;;;27.05;18.92;;;12.20;90.90;;;;;;5015212;28;20026;-80
2021/05/12 01:21:13;;;;;;;30.67;21.20;;;12.10;90.70;;;;;;5015217;28;20462;-79
2021/05/12 01:23:44;;;;;;;28.52;21.55;;;12.10;90.40;;;;;;5015031;28;20028;-79
2021/05/12 01:26:26;;;;;;;22.52;17.17;;;12.10;90.40;;;;;;5014948;28;20022;-78
2021/05/12 01:31:44;;;;;;;22.00;15.32;;;12.10;89.10;;;;;;5016520;28;20147;-79
2021/05/12 01:34:15;;;;;;;23.70;15.07;;;12.00;88.60;;;;;;5015942;28;20112;-79
2021/05/12 01:37:00;;;;;;;21.25;13.85;;;12.00;88.60;;;;;;5014013;28;20037;-79
2021/05/12 01:39:26;;;;;;;20.67;14.80;;;12.00;87.70;;;;;;5014688;28;20390;-77
2021/05/12 01:41:51;;;;;;;25.55;15.88;;;12.00;87.50;;;;;;5014873;28;20026;-78
2021/05/12 01:44:35;;;;;;;20.58;12.23;;;11.90;87.40;;;;;;5014458;28;20029;-80
2021/05/12 01:47:19;;;;;;;23.00;15.50;;;12.00;87.60;;;;;;5014745;28;20034;-78
2021/05/12 01:50:09;;;;;;;21.38;15.05;;;11.90;88.00;;;;;;5021466;28;20284;-80
2021/05/12 01:52:53;;;;;;;23.25;14.52;;;11.90;87.70;;;;;;5014743;28;20026;-79
2021/05/12 01:55:19;;;;;;;22.75;14.77;;;11.80;87.50;;;;;;5015494;28;20026;-79
2021/05/12 01:57:45;;;;;;;26.45;15.48;;;11.80;88.10;;;;;;5015707;28;20160;-80
2021/05/12 02:00:30;;;;;;;26.45;14.77;;;11.80;88.30;;;;;;5014081;28;20034;-79
2021/05/12 02:05:41;;;;;;;20.33;14.45;;;11.80;89.00;;;;;;5015903;28;20092;-80
2021/05/12 02:08:12;;;;;;;31.83;15.15;;;11.70;88.80;;;;;;5015126;28;20497;-79
2021/05/12 02:10:58;;;;;;;26.75;16.63;;;11.70;89.10;;;;;;5014447;28;20025;-81
2021/05/12 02:16:45;;;;;;;24.80;15.00;;;11.60;89.30;;;;;;5015678;28;20394;-78
2021/05/12 02:19:11;;;;;;;23.98;15.40;;;11.60;89.50;;;;;;5017800;28;20029;-78
2021/05/12 02:24:58;;;;;;;35.80;15.63;;;11.60;90.00;;;;;;5034628;28;20057;-78
2021/05/12 02:27:24;;;;;;;21.77;14.57;;;11.50;90.00;;;;;;5036065;28;20085;-78
2021/05/12 02:32:34;;;;;;;26.77;15.68;;;11.50;89.70;;;;;;5020621;28;20077;-79
2021/05/12 02:35:00;;;;;;;21.65;14.18;;;11.50;89.70;;;;;;5014751;28;20054;-79
2021/05/12 02:43:34;;;;;;;27.27;14.65;;;11.50;89.20;;;;;;5014958;28;20044;-79
2021/05/12 02:45:59;;;;;;;21.90;13.73;;;11.60;89.30;;;;;;5015362;28;20036;-80
2021/05/12 02:51:28;;;;;;;22.98;14.90;;;11.60;89.20;;;;;;5015022;28;20040;-80
2021/05/12 02:53:54;;;;;;;26.60;16.20;;;11.60;89.70;;;;;;5014074;28;20018;-79
2021/05/12 02:56:38;;;;;;;28.20;17.17;;;11.60;89.80;;;;;;5013851;28;20129;-80
2021/05/12 02:59:23;;;;;;;30.00;19.23;;;11.60;90.00;;;;;;5014025;28;20037;-80
2021/05/12 03:02:26;;;;;;;25.92;18.90;;;11.60;90.20;;;;;;5017866;28;20022;-79
2021/05/12 03:05:10;;;;;;;33.80;22.05;;;11.70;90.30;;;;;;5022511;28;20033;-81
2021/05/12 03:07:36;;;;;;;31.25;20.77;;;11.70;90.30;;;;;;5016874;28;20069;-80
2021/05/12 03:10:40;;;;;;;34.97;23.10;;;11.70;90.30;;;;;;5018831;28;20040;-80
2021/05/12 03:13:07;;;;;;;34.65;23.60;;;11.60;90.30;;;;;;5015631;28;20025;-79
2021/05/12 03:15:33;;;;;;;36.70;24.63;;;11.60;90.40;;;;;;5014837;28;20037;-79
2021/05/12 03:17:59;;;;;;;33.92;23.40;;;11.60;90.40;;;;;;5013384;28;20049;-80
2021/05/12 03:20:43;;;;;;;34.22;24.02;;;11.60;90.50;;;;;;5013750;28;20467;-79
2021/05/12 03:23:27;;;;;;;36.70;25.70;;;11.60;90.60;;;;;;5013367;28;20090;-78
2021/05/12 03:25:53;;;;;;;34.05;23.58;;;11.50;90.50;;;;;;5014683;28;20034;-79
2021/05/12 03:28:37;;;;;;;41.55;25.77;;;11.50;90.50;;;;;;5013120;28;20117;-80
2021/05/12 03:31:03;;;;;;;35.03;24.67;;;11.50;90.60;;;;;;5014754;28;20091;-79
2021/05/12 03:34:06;;;;;;;39.63;24.35;;;11.40;90.60;;;;;;5014277;28;20049;-78
2021/05/12 03:36:32;;;;;;;40.45;26.02;;;11.40;90.70;;;;;;5017127;28;20030;-79
2021/05/12 03:38:58;;;;;;;38.35;24.20;;;11.40;90.60;;;;;;5016654;28;20022;-80
2021/05/12 03:41:48;;;;;;;35.65;24.65;;;11.40;90.60;;;;;;5020582;28;20093;-83
2021/05/12 03:44:14;;;;;;;35.85;24.98;;;11.30;90.60;;;;;;5019588;28;20026;-78
2021/05/12 03:52:45;;;;;;;39.08;25.88;;;11.20;90.70;;;;;;5019920;28;20045;-79
2021/05/12 03:55:30;;;;;;;34.55;25.58;;;11.10;90.80;;;;;;5019804;28;20367;-79
2021/05/12 03:58:33;;;;;;;36.22;26.25;;;11.10;90.80;;;;;;5017400;28;20034;-79
2021/05/12 04:07:08;;;;;;;39.03;27.38;;;11.00;91.30;;;;;;5015275;28;20433;-80
2021/05/12 04:09:52;;;;;;;38.15;26.77;;;10.90;91.40;;;;;;5015449;28;20026;-80
2021/05/12 04:12:18;;;;;;;43.50;28.30;;;10.90;91.40;;;;;;5016355;28;20026;-79
2021/05/12 04:17:49;;;;;;;40.80;28.48;;;10.90;91.50;;;;;;5022467;28;20107;-80
2021/05/12 04:20:17;;;;;;;47.90;29.08;;;10.90;91.60;;;;;;5024154;28;20026;-79
2021/05/12 04:22:47;;;;;;;40.58;27.10;;;11.00;91.50;;;;;;5036308;28;20018;-78
2021/05/12 04:28:34;;;;;;;43.15;28.95;;;11.00;91.60;;;;;;5035733;28;20627;-80
2021/05/12 04:34:02;;;;;;;39.75;27.17;;;11.00;91.60;;;;;;5021490;28;20060;-79
2021/05/12 04:39:31;;;;;;;44.38;28.15;;;11.10;91.40;;;;;;5014982;28;20540;-80
2021/05/12 04:41:56;;;;;;;37.60;26.60;;;11.10;91.30;;;;;;5013260;28;20219;-81
2021/05/12 04:44:22;;;;;;;40.22;27.83;;;11.10;91.30;;;;;;5017797;28;20157;-82
2021/05/12 04:46:49;;;;;;;47.08;27.73;;;11.10;91.20;;;;;;5017340;28;20056;-82
2021/05/12 04:49:34;;;;;;;46.40;28.77;;;11.10;91.10;;;;;;5030829;28;20050;-82
2021/05/12 04:52:00;;;;;;;46.42;28.50;;;11.20;91.20;;;;;;5021598;28;20033;-81
2021/05/12 04:54:44;;;;;;;36.70;27.65;;;11.20;91.10;;;;;;5021895;28;20022;-82
2021/05/12 05:00:14;;;;;;;40.28;27.23;;;11.20;91.20;;;;;;5023122;28;20144;-83
2021/05/12 05:02:59;;;;;;;45.03;28.00;;;11.30;91.10;;;;;;5024746;28;20022;-80
2021/05/12 05:05:27;;;;;;;36.05;25.15;;;11.30;91.00;;;;;;5021924;28;20120;-81
2021/05/12 05:08:11;;;;;;;40.58;25.35;;;11.40;90.90;;;;;;5024258;28;20054;-82
2021/05/12 05:10:37;;;;;;;41.85;24.33;;;11.50;90.80;;;;;;5023153;28;20018;-81
2021/05/12 05:16:05;;;;;;;31.35;22.25;;;11.70;90.30;;;;;;5025226;28;20513;-81
2021/05/12 05:26:45;;;;;;;33.67;20.85;;;12.00;89.30;;;;;;5019523;28;20103;-82
2021/05/12 05:29:29;;;;;;;33.55;22.40;;;12.00;89.00;;;;;;5018096;28;20022;-81
2021/05/12 05:34:47;;;;;;;33.63;22.63;;;12.10;89.00;;;;;;5021822;28;20076;-81
2021/05/12 05:37:31;;;;;;;36.80;22.08;;;12.20;88.80;;;;;;5022019;28;20034;-80
2021/05/12 05:40:16;;;;;;;33.05;21.55;;;12.20;88.50;;;;;;5020448;28;20030;-82
2021/05/12 05:45:29;;;;;;;29.98;21.30;;;12.30;88.00;;;;;;5018230;28;20496;-82
2021/05/12 05:51:36;;;;;;;30.42;20.95;;;12.40;87.80;;;;;;5019610;28;20044;-83
2021/05/12 05:54:02;;;;;;;30.83;20.70;;;12.40;87.60;;;;;;5018735;28;20026;-81
2021/05/12 05:56:27;;;;;;;29.63;22.77;;;12.50;87.40;;;;;;5016952;28;20405;-82
2021/05/12 06:01:57;;;;;;;15.95;10.52;;;12.60;86.80;;;;;;5018932;28;20077;-80
2021/05/12 06:04:24;;;;;;;28.73;20.30;;;12.70;85.80;;;;;;5018123;28;20029;-83
2021/05/12 06:07:09;;;;;;;31.52;21.55;;;12.80;85.60;;;;;;5018347;28;20386;-82
2021/05/12 06:09:34;;;;;;;16.25;7.07;;;12.90;85.90;;;;;;5027439;28;20041;-80
2021/05/12 06:15:05;;;;;;;33.50;20.05;;;13.30;83.70;;;;;;5031708;28;20046;-82
2021/05/12 06:17:49;;;;;;;34.60;20.10;;;13.40;83.50;;;;;;5033516;28;20061;-82
2021/05/12 06:20:53;;;;;;;30.73;20.88;;;13.50;83.30;;;;;;5033534;28;20093;-81
2021/05/12 06:29:06;;;;;;;10.95;4.53;;;13.70;81.60;;;;;;5037540;28;20041;-83
2021/05/12 06:34:35;;;;;;;9.13;4.18;;;14.00;79.60;;;;;;5017852;28;20084;-82
2021/05/12 06:37:02;;;;;;;10.15;4.20;;;14.20;79.20;;;;;;5019632;28;20038;-81
2021/05/12 06:42:12;;;;;;;11.65;4.43;;;14.50;77.90;;;;;;5022756;28;20045;-79
2021/05/12 06:44:56;;;;;;;8.57;4.20;;;14.60;77.40;;;;;;5020514;28;20018;-85
2021/05/12 06:47:22;;;;;;;9.60;4.55;;;14.60;77.20;;;;;;5014993;28;20030;-80
2021/05/12 06:49:47;;;;;;;8.40;4.60;;;14.80;77.60;;;;;;5014729;28;20097;-77
2021/05/12 06:52:13;;;;;;;10.25;3.92;;;14.90;76.40;;;;;;5013648;28;20129;-78
2021/05/12 06:54:57;;;;;;;9.07;4.07;;;15.00;76.00;;;;;;5013465;28;20018;-73
2021/05/12 06:57:41;;;;;;;9.55;3.97;;;15.10;75.50;;;;;;5014126;28;20148;-75
2021/05/12 07:02:52;;;;;;;10.52;5.32;;;15.60;73.80;;;;;;5015384;28;20092;-78
2021/05/12 07:05:43;;;;;;;10.02;5.25;;;15.80;73.00;;;;;;5013607;28;20018;-79
2021/05/12 07:08:08;;;;;;;13.95;4.78;;;15.80;71.80;;;;;;5012956;28;20196;-79
2021/05/12 07:10:53;;;;;;;12.27;5.40;;;15.60;71.50;;;;;;5014086;28;20485;-80
2021/05/12 07:13:18;;;;;;;13.05;4.93;;;15.60;72.20;;;;;;5014302;28;20125;-77
2021/05/12 07:15:44;;;;;;;13.40;4.28;;;15.70;72.30;;;;;;5017565;28;20065;-81
2021/05/12 07:21:32;;;;;;;14.10;4.90;;;16.00;71.50;;;;;;5017737;28;20056;-77
2021/05/12 07:24:16;;;;;;;9.90;3.83;;;16.20;69.90;;;;;;5014280;28;20117;-76
2021/05/12 07:29:45;;;;;;;9.75;3.95;;;16.20;69.50;;;;;;5014648;28;20084;-78
2021/05/12 07:32:11;;;;;;;13.88;3.58;;;16.30;69.10;;;;;;5013626;28;20022;-82
2021/05/12 07:34:55;;;;;;;23.73;5.03;;;16.30;68.90;;;;;;5012242;28;20116;-80
2021/05/12 07:37:21;;;;;;;19.88;3.38;;;16.40;68.40;;;;;;5012789;28;20033;-82
2021/05/12 07:42:51;;;;;;;9.60;3.88;;;16.50;68.20;;;;;;5015035;28;20037;-78
2021/05/12 07:45:36;;;;;;;10.57;2.90;;;16.60;67.40;;;;;;5013118;28;20116;-81
2021/05/12 07:48:04;;;;;;;11.48;4.22;;;16.60;67.60;;;;;;5013706;28;20057;-78
2021/05/12 07:56:38;;;;;;;13.82;4.50;;;16.80;67.00;;;;;;5015904;28;20088;-79
2021/05/12 07:59:04;;;;;;;11.85;3.15;;;17.00;60.70;;;;;;5016832;28;20022;-80
2021/05/12 08:01:49;;;;;;;15.15;3.22;;;17.20;62.40;;;;;;5031548;28;20040;-78
2021/05/12 08:04:34;;;;;;;12.98;3.80;;;17.60;62.00;;;;;;5019918;28;20064;-79
2021/05/12 08:07:37;;;;;;;16.20;4.35;;;17.70;58.40;;;;;;4997845;28;20022;-80
2021/05/12 08:10:04;;;;;;;12.20;3.55;;;17.70;58.70;;;;;;5007858;28;20018;-77
2021/05/12 08:18:01;;;;;;;15.02;3.45;;;18.20;57.20;;;;;;5006428;28;20041;-82
2021/05/12 08:20:46;;;;;;;12.18;3.10;;;18.40;57.60;;;;;;5000033;28;20018;-82
2021/05/12 08:23:30;;;;;;;9.48;2.58;;;18.50;54.10;;;;;;5022422;28;20018;-79
2021/05/12 08:26:15;;;;;;;8.57;2.60;;;18.50;57.00;;;;;;5019022;28;20034;-80
2021/05/12 08:32:02;;;;;;;10.80;2.38;;;18.20;58.10;;;;;;5010172;28;20041;-77
2021/05/12 08:34:28;;;;;;;6.03;2.08;;;18.30;58.80;;;;;;5013541;28;20074;-80
2021/05/12 08:36:55;;;;;;;9.32;2.00;;;18.50;58.30;;;;;;4999815;28;20096;-79
2021/05/12 08:39:21;;;;;;;8.57;1.88;;;18.50;53.60;;;;;;5019006;28;20026;-80
2021/05/12 08:41:48;;;;;;;8.95;2.58;;;18.50;57.60;;;;;;5013917;28;20373;-81
2021/05/12 08:44:33;;;;;;;6.03;1.70;;;18.60;57.50;;;;;;5018002;28;20022;-79
2021/05/12 08:47:00;;;;;;;7.00;2.17;;;18.50;57.50;;;;;;5030676;28;20036;-80
2021/05/12 08:49:45;;;;;;;6.20;1.63;;;18.50;57.20;;;;;;5017763;28;20030;-80
2021/05/12 08:52:11;;;;;;;7.93;1.50;;;18.60;58.90;;;;;;5016131;28;20025;-82
2021/05/12 08:54:37;;;;;;;6.18;2.35;;;18.90;59.50;;;;;;5016045;28;20026;-80
2021/05/12 09:00:07;;;;;;;7.82;2.78;;;19.10;55.90;;;;;;5018705;28;20112;-80
2021/05/12 09:08:41;;;;;;;7.60;1.60;;;19.20;60.00;;;;;;5022193;28;20124;-88
2021/05/12 09:11:07;;;;;;;7.85;1.92;;;19.30;59.90;;;;;;5009816;28;20040;-81
2021/05/12 09:23:03;;;;;;;14.18;2.72;;;19.40;61.60;;;;;;5015210;28;20077;-83
2021/05/12 09:25:31;;;;;;;7.63;1.40;;;19.60;61.00;;;;;;5001204;28;20485;-83
2021/05/12 09:36:35;;;;;;;4.35;1.55;;;19.70;61.80;;;;;;5017549;28;20509;-83
2021/05/12 09:39:19;;;;;;;4.57;1.48;;;19.70;62.60;;;;;;5015883;28;20030;-84
2021/05/12 09:45:07;;;;;;;8.50;1.30;;;20.00;61.50;;;;;;5007333;28;20061;-85
2021/05/12 09:47:32;;;;;;;10.55;3.22;;;20.20;61.10;;;;;;4998347;28;20471;-84
2021/05/12 09:50:20;;;;;;;9.75;2.50;;;20.20;56.90;;;;;;5001738;28;20018;-82
2021/05/12 09:52:46;;;;;;;5.97;2.13;;;20.00;50.40;;;;;;5021750;28;20025;-81
2021/05/12 10:01:36;;;;;;;5.50;1.67;;;20.00;53.90;;;;;;4999162;28;20549;-83
2021/05/12 10:04:21;;;;;;;9.98;1.52;;;20.00;54.40;;;;;;4999757;28;20022;-87
2021/05/12 10:07:23;;;;;;;6.15;1.30;;;20.10;50.00;;;;;;5011889;28;20034;-85
2021/05/12 10:10:08;;;;;;;7.10;1.58;;;20.30;50.60;;;;;;5015976;28;20010;-88
2021/05/12 10:12:53;;;;;;;8.35;1.83;;;20.70;50.50;;;;;;5000055;28;20371;-87
2021/05/12 10:18:07;;;;;;;5.47;1.48;;;21.10;48.70;;;;;;5005396;28;20371;-86
2021/05/12 10:29:14;;;;;;;5.68;1.65;;;21.70;42.70;;;;;;5034753;28;20039;-87
2021/05/12 10:34:43;;;;;;;7.95;1.92;;;20.80;43.40;;;;;;5010236;28;20061;-82
2021/05/12 10:37:17;;;;;;;9.90;2.30;;;20.40;44.20;;;;;;4997683;28;20026;-85
2021/05/12 10:39:44;;;;;;;12.55;2.13;;;20.40;48.00;;;;;;5012564;28;20021;-84
2021/05/12 10:43:00;;;;;;;7.65;1.80;;;20.50;46.90;;;;;;5015605;28;20021;-82
2021/05/12 10:45:33;;;;;;;10.65;1.85;;;20.50;47.90;;;;;;5014457;28;20144;-81
2021/05/12 10:48:36;;;;;;;7.70;1.92;;;20.70;50.00;;;;;;5015722;28;20026;-84
2021/05/12 10:57:10;;;;;;;9.02;1.42;;;20.30;60.40;;;;;;5027498;28;20053;-85
2021/05/12 10:59:40;;;;;;;7.20;1.50;;;20.50;60.10;;;;;;5018260;28;20117;-86
2021/05/12 11:02:06;;;;;;;11.13;1.80;;;20.50;60.10;;;;;;5013419;28;20023;-85
2021/05/12 11:05:00;;;;;;;12.48;2.22;;;20.50;60.40;;;;;;5007437;28;20022;-81
2021/05/12 11:07:26;;;;;;;5.45;1.50;;;20.90;59.70;;;;;;5007310;28;20034;-80
2021/05/12 11:09:51;;;;;;;5.97;1.50;;;21.20;60.40;;;;;;4998298;28;20025;-82
2021/05/12 11:12:21;;;;;;;5.47;1.48;;;21.30;61.10;;;;;;5030828;28;20381;-85
2021/05/12 11:14:57;;;;;;;10.60;1.70;;;21.70;60.50;;;;;;5014284;28;20295;-82
2021/05/12 11:17:59;;;;;;;6.40;1.70;;;21.90;60.10;;;;;;5014071;28;20034;-83
2021/05/12 11:20:43;;;;;;;8.05;1.73;;;22.10;58.70;;;;;;5000945;28;20026;-83
2021/05/12 11:32:06;;;;;;;6.38;1.75;;;22.30;59.60;;;;;;5021816;28;20041;-81
2021/05/12 11:35:13;;;;;;;;;;;;;;;;;;;;;
2021/05/12 11:41:19;;;;;;;5.05;1.20;;;22.30;55.60;;;;;;5005607;28;20089;-82
2021/05/12 11:44:22;;;;;;;3.78;0.88;;;22.50;60.70;;;;;;5015995;28;20022;-80
2021/05/12 11:50:10;;;;;;;4.82;1.20;;;22.80;57.70;;;;;;5004203;28;20041;-81
2021/05/12 11:52:37;;;;;;;3.78;1.20;;;22.70;58.10;;;;;;5013585;28;20101;-82
2021/05/12 11:58:33;;;;;;;4.20;0.70;;;23.10;59.00;;;;;;5003143;28;20092;-81
2021/05/12 12:07:07;;;;;;;8.57;2.08;;;23.80;55.10;;;;;;5022905;28;20511;-80
2021/05/12 12:09:33;;;;;;;7.95;1.10;;;23.70;49.10;;;;;;5014411;28;20026;-79
2021/05/12 12:12:17;;;;;;;5.50;1.30;;;23.70;48.40;;;;;;5012772;28;20026;-80
2021/05/12 12:15:21;;;;;;;7.72;1.70;;;23.80;51.90;;;;;;5029606;28;20030;-79
2021/05/12 12:18:07;;;;;;;5.05;1.40;;;24.00;50.50;;;;;;5030782;28;20038;-79
2021/05/12 12:20:34;;;;;;;5.53;1.38;;;24.00;52.60;;;;;;5035949;28;20029;-80
2021/05/12 12:23:02;;;;;;;8.55;1.63;;;24.00;57.30;;;;;;5023887;28;20067;-79
2021/05/12 12:28:12;;;;;;;8.13;1.63;;;24.00;51.10;;;;;;5033013;28;20021;-80
2021/05/12 12:31:15;;;;;;;9.63;1.90;;;24.00;52.40;;;;;;5032782;28;20026;-77
2021/05/12 12:34:17;;;;;;;9.40;2.22;;;23.80;49.10;;;;;;5026741;28;20161;-79
2021/05/12 12:42:55;;;;;;;4.30;1.00;;;23.20;50.30;;;;;;5017513;28;20036;-80
2021/05/12 12:45:42;;;;;;;4.07;1.33;;;23.20;56.30;;;;;;5017899;28;20026;-78
2021/05/12 12:51:52;;;;;;;8.88;1.20;;;23.30;59.20;;;;;;5019585;28;20386;-78
2021/05/12 12:54:44;;;;;;;7.45;1.67;;;23.10;48.90;;;;;;5035395;28;20056;-79
2021/05/12 12:57:36;;;;;;;7.22;1.67;;;23.00;46.40;;;;;;5021901;28;20065;-77
2021/05/12 13:00:07;;;;;;;9.30;1.88;;;23.20;41.60;;;;;;5033965;28;20018;-79
2021/05/12 13:02:33;;;;;;;8.20;1.75;;;23.30;40.20;;;;;;5036314;28;20124;-78
2021/05/12 13:05:43;;;;;;;4.88;1.23;;;23.50;45.70;;;;;;5017109;28;20065;-77
2021/05/12 13:11:26;;;;;;;5.85;1.20;;;24.10;40.70;;;;;;5019517;28;20402;-79
2021/05/12 13:17:00;;;;;;;;;;;24.10;54.10;;;;;;5016288;28;20103;-77
2021/05/12 13:22:11;;;;;;;5.38;1.40;;;24.20;51.90;;;;;;5016442;28;20049;-78
2021/05/12 13:24:37;;;;;;;6.13;1.52;;;24.20;49.20;;;;;;5016044;28;20030;-77
2021/05/12 13:27:22;;;;;;;5.97;1.40;;;24.40;47.50;;;;;;5014722;28;20113;-78
2021/05/12 13:30:06;;;;;;;7.97;1.52;;;24.30;53.00;;;;;;5016232;28;20104;-78
2021/05/12 13:32:32;;;;;;;5.47;1.60;;;24.20;47.10;;;;;;5015306;28;20291;-78
2021/05/12 13:34:58;;;;;;;5.78;1.38;;;23.80;46.00;;;;;;5015091;28;20653;-77
2021/05/12 13:37:24;;;;;;;7.47;1.30;;;23.50;52.30;;;;;;5016051;28;20046;-79
2021/05/12 13:39:50;;;;;;;6.10;1.77;;;23.40;47.60;;;;;;5018454;28;20450;-79
2021/05/12 13:42:16;;;;;;;8.50;1.92;;;23.40;47.90;;;;;;5015084;28;20394;-81
2021/05/12 13:45:00;;;;;;;8.38;1.33;;;23.20;48.10;;;;;;5014755;28;20053;-79
2021/05/12 13:50:13;;;;;;;11.20;2.47;;;22.60;50.30;;;;;;5016725;28;20170;-81
2021/05/12 13:56:00;;;;;;;7.22;1.60;;;22.90;44.80;;;;;;5016099;28;20125;-79
2021/05/12 14:04:09;;;;;;;7.70;1.40;;;22.20;47.00;;;;;;5019336;28;20064;-78
2021/05/12 14:12:23;;;;;;;7.32;1.50;;;22.50;42.80;;;;;;5015447;28;20575;-78
2021/05/12 14:15:02;;;;;;;6.30;1.35;;;22.80;43.90;;;;;;5014134;28;20040;-78
2021/05/12 14:20:31;;;;;;;6.47;1.50;;;22.80;43.00;;;;;;5015622;28;20355;-78
2021/05/12 14:23:15;;;;;;;7.32;1.65;;;22.70;51.00;;;;;;5013971;28;20026;-75
2021/05/12 14:25:59;;;;;;;9.07;1.80;;;22.60;44.70;;;;;;5018107;28;20101;-78
2021/05/12 14:28:31;;;;;;;8.07;1.60;;;22.70;40.80;;;;;;5021256;28;20086;-77
2021/05/12 14:31:15;;;;;;;8.27;2.33;;;22.90;48.50;;;;;;5023062;28;20101;-77
2021/05/12 14:33:41;;;;;;;7.30;1.80;;;22.90;45.60;;;;;;5023246;28;20050;-77
2021/05/12 14:42:13;;;;;;;7.93;1.88;;;23.70;38.20;;;;;;5015600;28;20049;-77
2021/05/12 14:45:16;;;;;;;8.20;1.75;;;23.70;43.00;;;;;;5022960;28;20076;-78
2021/05/12 14:50:27;;;;;;;6.40;1.38;;;23.80;37.00;;;;;;5014534;28;20044;-78
2021/05/12 14:53:33;;;;;;;5.63;1.33;;;23.70;37.70;;;;;;5013286;28;20112;-77
2021/05/12 14:56:37;;;;;;;6.30;1.63;;;23.60;39.20;;;;;;5013805;28;20065;-77
2021/05/12 15:08:48;;;;;;;9.63;2.13;;;23.80;41.00;;;;;;5015808;28;20091;-78
2021/05/12 15:11:15;;;;;;;6.32;1.70;;;23.60;43.70;;;;;;5013278;28;20481;-76
2021/05/12 15:13:42;;;;;;;5.90;1.50;;;23.60;40.60;;;;;;5014121;28;20061;-76
2021/05/12 15:16:08;;;;;;;6.07;1.88;;;23.70;40.50;;;;;;5012680;28;20076;-77
2021/05/12 15:18:34;;;;;;;6.53;1.75;;;23.80;44.60;;;;;;5012899;28;20088;-77
2021/05/12 15:21:00;;;;;;;8.85;1.98;;;23.80;47.40;;;;;;5014399;28;20030;-76
2021/05/12 15:23:25;;;;;;;3.25;0.98;;;23.90;45.70;;;;;;5020448;28;20032;-77
2021/05/12 15:25:51;;;;;;;4.40;1.08;;;23.70;50.20;;;;;;5012610;28;20026;-78
2021/05/12 15:28:16;;;;;;;4.43;1.05;;;23.60;51.30;;;;;;5013177;28;20437;-77
2021/05/12 15:30:42;;;;;;;5.32;1.15;;;23.50;50.80;;;;;;5012859;28;20022;-77
2021/05/12 15:36:32;;;;;;;4.35;1.55;;;23.30;55.40;;;;;;5014856;28;20099;-80
2021/05/12 15:42:01;;;;;;;6.22;1.48;;;23.40;43.70;;;;;;5017648;28;20044;-78
2021/05/12 15:44:48;;;;;;;4.55;1.35;;;23.30;42.50;;;;;;5015012;28;20120;-78
2021/05/12 15:47:14;;;;;;;4.95;1.17;;;23.10;45.10;;;;;;5021544;28;20482;-78
2021/05/12 15:50:18;;;;;;;9.77;2.10;;;23.00;51.90;;;;;;5035100;28;20033;-78
2021/05/12 15:53:02;;;;;;;8.10;1.58;;;22.80;45.20;;;;;;5025989;28;20052;-77
2021/05/12 15:55:28;;;;;;;5.57;1.13;;;22.40;48.80;;;;;;5014003;28;20029;-78
2021/05/12 16:00:39;;;;;;;6.60;1.65;;;22.10;53.60;;;;;;5020948;28;20040;-77
2021/05/12 16:03:24;;;;;;;5.38;1.27;;;22.00;49.50;;;;;;5012375;28;20046;-78
2021/05/12 16:09:11;;;;;;;6.32;1.75;;;21.60;40.20;;;;;;5013144;28;20056;-77
2021/05/12 16:11:55;;;;;;;10.88;1.98;;;21.50;41.00;;;;;;5012088;28;20026;-76
2021/05/12 16:14:40;;;;;;;7.60;2.10;;;21.30;40.30;;;;;;5012410;28;20049;-78
2021/05/12 16:17:25;;;;;;;8.95;1.50;;;21.10;42.70;;;;;;5012680;28;20389;-77
2021/05/12 16:20:09;;;;;;;7.28;1.55;;;21.00;43.80;;;;;;5014066;28;20137;-77
2021/05/12 16:22:35;;;;;;;6.95;1.55;;;20.80;41.60;;;;;;5012755;28;20426;-77
2021/05/12 16:25:01;;;;;;;6.43;1.70;;;20.80;41.90;;;;;;5013908;28;20133;-78
2021/05/12 16:30:49;;;;;;;7.82;1.73;;;20.40;46.40;;;;;;5022418;28;20045;-77
2021/05/12 16:41:47;;;;;;;6.47;1.35;;;19.60;43.70;;;;;;5013819;28;20041;-77
2021/05/12 16:47:16;;;;;;;10.50;1.52;;;19.50;59.50;;;;;;5013904;28;20045;-78
2021/05/12 16:53:03;;;;;;;7.60;1.95;;;19.50;52.30;;;;;;5013744;28;20130;-78
2021/05/12 16:58:17;;;;;;;8.77;1.45;;;19.30;48.10;;;;;;5013076;28;20178;-77
2021/05/12 17:01:01;;;;;;;4.18;1.08;;;19.30;49.90;;;;;;5011873;28;20036;-77
2021/05/12 17:06:30;;;;;;;8.20;2.33;;;19.20;48.30;;;;;;5014881;28;20036;-77
2021/05/12 17:08:57;;;;;;;7.68;2.10;;;18.90;51.50;;;;;;5018537;28;20026;-78
2021/05/12 17:11:51;;;;;;;10.10;3.08;;;18.70;51.80;;;;;;5018651;28;20098;-76
2021/05/12 17:14:20;;;;;;;10.55;2.40;;;18.50;54.50;;;;;;5018028;28;20088;-77
2021/05/12 17:17:05;;;;;;;8.45;3.22;;;18.20;56.30;;;;;;5016018;28;20026;-78
2021/05/12 17:19:31;;;;;;;10.65;2.72;;;17.90;57.90;;;;;;5016974;28;20025;-80
2021/05/12 17:22:15;;;;;;;13.13;3.30;;;17.70;59.70;;;;;;5016934;28;20116;-80
2021/05/12 17:24:41;;;;;;;10.27;2.60;;;17.60;62.20;;;;;;5017203;28;20033;-79
2021/05/12 17:27:08;;;;;;;12.13;2.78;;;17.40;60.40;;;;;;5015971;28;20030;-80
2021/05/12 17:30:11;;;;;;;10.60;2.90;;;17.30;60.50;;;;;;5015438;28;20022;-79
2021/05/12 17:39:02;;;;;;;10.20;3.35;;;17.00;60.80;;;;;;5032511;28;20045;-78
2021/05/12 17:44:12;;;;;;;7.28;2.25;;;16.80;61.20;;;;;;5033600;28;20373;-78
2021/05/12 17:46:38;;;;;;;8.43;2.97;;;16.80;62.90;;;;;;5026652;28;20030;-79
2021/05/12 17:51:50;;;;;;;9.98;2.60;;;16.70;66.40;;;;;;5022086;28;20064;-78
2021/05/12 17:54:34;;;;;;;10.15;2.45;;;16.60;62.40;;;;;;5022387;28;20072;-76
2021/05/12 18:02:54;;;;;;;11.32;2.67;;;16.50;60.60;;;;;;5016167;28;20059;-77
2021/05/12 18:05:24;;;;;;;11.32;2.70;;;16.50;61.20;;;;;;5015642;28;20183;-77
2021/05/12 18:08:08;;;;;;;7.63;3.10;;;16.50;60.60;;;;;;5014676;28;20426;-79
2021/05/12 18:10:53;;;;;;;6.75;2.75;;;16.40;60.70;;;;;;5015535;28;20121;-78
2021/05/12 18:19:26;;;;;;;14.38;2.75;;;16.30;63.30;;;;;;5015900;28;20100;-78
2021/05/12 18:24:54;;;;;;;11.82;2.70;;;16.20;62.60;;;;;;5017395;28;20036;-79
2021/05/12 18:31:21;;;;;;;8.25;2.45;;;16.00;64.50;;;;;;5035454;28;20024;-81
2021/05/12 18:36:50;;;;;;;12.27;3.20;;;15.90;63.80;;;;;;5034859;28;20052;-82
2021/05/12 18:39:29;;;;;;;10.35;3.10;;;15.90;65.10;;;;;;5023958;28;20279;-84
2021/05/12 18:47:25;;;;;;;13.02;5.35;;;15.80;64.50;;;;;;5017376;28;20489;-80
2021/05/12 18:52:35;;;;;;;14.82;4.18;;;15.70;65.00;;;;;;5017160;28;20033;-83
2021/05/12 18:55:00;;;;;;;9.48;2.50;;;15.70;65.40;;;;;;5016196;28;20394;-81
2021/05/12 18:57:26;;;;;;;13.55;3.50;;;15.60;65.50;;;;;;5017319;28;20065;-79
2021/05/12 19:05:24;;;;;;;6.07;1.75;;;15.60;65.80;;;;;;5021562;28;20172;-81
2021/05/12 19:08:37;;;;;;;4.85;2.03;;;15.80;66.00;;;;;;5017183;28;20049;-80
2021/05/12 19:14:45;;;;;;;2.83;1.10;;;16.60;64.70;;;;;;5018880;28;20426;-82
2021/05/12 19:23:15;;;;;;;7.40;2.25;;;17.40;63.20;;;;;;5017010;28;20567;-80
2021/05/12 19:26:09;;;;;;;7.88;2.50;;;17.50;62.90;;;;;;5015016;28;20053;-77